Time;durP1;ratioP1;P1;durP2;ratioP2;P2;SDS_P1;SDS_P2;PMS_P1;PMS_P2;Temp;Humidity;BMP_temperature;BMP_pressure;BME280_temperature;BME280_humidity;BME280_pressure;Samples;Min_cycle;Max_cycle;Signal;HPM_P1;HPM_P2
2023/02/07 00:03:45;;;;;;;5.30;1.97;;;-6.50;99.90;;;;;;20909581;28;20490;-59
2023/02/07 00:13:49;;;;;;;4.23;1.97;;;-6.50;99.90;;;;;;20908941;28;20035;-60
2023/02/07 00:23:52;;;;;;;4.67;2.33;;;-6.70;99.90;;;;;;20907986;28;20059;-58
2023/02/07 00:33:56;;;;;;;5.00;2.23;;;-7.00;99.90;;;;;;20907802;28;20106;-59
2023/02/07 00:43:58;;;;;;;5.18;1.95;;;-7.00;99.90;;;;;;20887993;28;20033;-60
2023/02/07 00:54:00;;;;;;;5.97;1.40;;;-6.90;99.90;;;;;;20905919;28;20028;-59
2023/02/07 01:04:02;;;;;;;4.32;1.10;;;-6.90;99.90;;;;;;20887325;28;20450;-60
2023/02/07 01:14:03;;;;;;;3.80;1.30;;;-6.40;99.90;;;;;;20886537;28;20394;-61
2023/02/07 01:24:05;;;;;;;3.92;1.63;;;-5.70;99.90;;;;;;20903692;28;20098;-59
2023/02/07 01:34:11;;;;;;;4.20;1.60;;;-6.00;99.90;;;;;;20903199;28;20032;-59
2023/02/07 01:44:21;;;;;;;2.55;1.20;;;-6.10;99.90;;;;;;20884897;28;20029;-59
2023/02/07 01:54:30;;;;;;;2.80;1.17;;;-6.40;99.90;;;;;;20902023;28;20029;-59
2023/02/07 02:04:32;;;;;;;2.53;1.42;;;-6.40;99.90;;;;;;20903422;28;20041;-60
2023/02/07 02:15:02;;;;;;;4.43;1.63;;;-6.40;99.90;;;;;;20883535;28;20067;-58
2023/02/07 02:25:04;;;;;;;;;;;-6.80;99.90;;;;;;20899820;28;20036;-60
2023/02/07 02:35:22;;;;;;;3.53;1.80;;;-6.90;99.90;;;;;;20900671;28;19924;-59
2023/02/07 02:45:32;;;;;;;3.03;1.37;;;-6.90;99.90;;;;;;20896837;28;20048;-60
2023/02/07 02:55:51;;;;;;;3.47;1.50;;;-6.60;99.90;;;;;;20881753;28;20033;-62
2023/02/07 03:05:53;;;;;;;3.78;1.70;;;-6.20;99.90;;;;;;20902227;28;20595;-61
2023/02/07 03:15:55;;;;;;;4.75;1.70;;;-6.10;99.90;;;;;;20895769;28;20052;-59
2023/02/07 03:26:00;;;;;;;3.72;1.67;;;-6.10;99.90;;;;;;20895232;28;20544;-59
2023/02/07 03:36:15;;;;;;;2.97;1.55;;;-6.00;99.90;;;;;;20893977;28;20033;-59
2023/02/07 03:46:17;;;;;;;3.55;1.65;;;-6.00;99.90;;;;;;20913022;28;20382;-59
2023/02/07 03:56:18;;;;;;;5.18;2.40;;;-6.00;99.90;;;;;;20909806;28;20031;-58
2023/02/07 04:06:21;;;;;;;7.40;2.28;;;-6.10;99.90;;;;;;20906442;28;20481;-60
2023/02/07 04:16:23;;;;;;;3.88;2.10;;;-6.20;99.90;;;;;;20904083;28;20033;-59
2023/02/07 04:26:24;;;;;;;4.68;1.70;;;-6.00;99.90;;;;;;20889761;28;20087;-60
2023/02/07 04:36:28;;;;;;;4.00;1.73;;;-6.00;99.90;;;;;;20907401;28;20037;-59
2023/02/07 04:46:30;;;;;;;4.18;1.60;;;-6.10;99.90;;;;;;20908143;28;20044;-59
2023/02/07 04:56:32;;;;;;;3.95;1.40;;;-6.00;99.90;;;;;;20902299;28;20025;-59
2023/02/07 05:06:33;;;;;;;4.47;1.63;;;-6.30;99.90;;;;;;20903010;28;20029;-60
2023/02/07 05:16:35;;;;;;;5.07;2.47;;;-6.60;99.90;;;;;;20901691;28;20024;-59
2023/02/07 05:26:36;;;;;;;5.07;2.35;;;-6.70;99.90;;;;;;20902828;28;20032;-60
2023/02/07 05:36:38;;;;;;;9.10;2.55;;;-6.80;99.90;;;;;;20898872;28;20036;-59
2023/02/07 05:46:39;;;;;;;6.78;2.65;;;-6.70;99.90;;;;;;20901544;28;20052;-60
2023/02/07 05:56:41;;;;;;;7.85;3.03;;;-6.50;99.90;;;;;;20901914;28;20033;-59
2023/02/07 06:06:42;;;;;;;6.72;2.90;;;-6.40;99.90;;;;;;20899166;28;20041;-59
2023/02/07 06:16:44;;;;;;;6.22;3.30;;;-6.10;99.90;;;;;;20901846;28;20393;-62
2023/02/07 06:26:46;;;;;;;8.82;3.25;;;-6.10;99.90;;;;;;20890652;28;20037;-59
2023/02/07 06:36:47;;;;;;;8.68;3.53;;;-6.30;99.90;;;;;;20869020;28;20033;-60
2023/02/07 06:46:49;;;;;;;5.80;2.92;;;-6.40;99.90;;;;;;20915303;28;20032;-60
2023/02/07 06:56:50;;;;;;;8.55;3.38;;;-6.20;99.90;;;;;;20916954;28;20401;-60
2023/02/07 07:06:52;;;;;;;9.38;3.28;;;-6.00;99.90;;;;;;20910347;28;20114;-60
2023/02/07 07:16:54;;;;;;;6.40;3.10;;;-5.60;99.90;;;;;;20907833;28;20371;-60
2023/02/07 07:26:55;;;;;;;5.93;2.75;;;-5.40;99.90;;;;;;20915255;28;20040;-60
2023/02/07 07:36:57;;;;;;;4.80;2.58;;;-5.20;99.90;;;;;;20911894;28;20026;-59
2023/02/07 07:46:58;;;;;;;5.28;2.83;;;-4.70;99.90;;;;;;20908351;28;20029;-60
2023/02/07 07:57:00;;;;;;;5.88;2.83;;;-4.30;99.90;;;;;;20909888;28;20076;-61
2023/02/07 08:07:02;;;;;;;5.80;2.70;;;-3.40;99.90;;;;;;20909608;28;20107;-60
2023/02/07 08:17:03;;;;;;;3.88;1.80;;;-2.70;99.90;;;;;;20891145;28;20087;-60
2023/02/07 08:27:05;;;;;;;4.68;2.10;;;-2.20;99.90;;;;;;20910754;28;20025;-61
2023/02/07 08:37:08;;;;;;;9.20;5.47;;;-1.30;99.90;;;;;;20907358;28;20035;-59
2023/02/07 08:47:10;;;;;;;10.48;5.63;;;-0.60;99.90;;;;;;20906406;28;20029;-59
2023/02/07 08:57:11;;;;;;;10.50;5.80;;;0.30;99.90;;;;;;20908316;28;20033;-58
2023/02/07 09:07:13;;;;;;;9.13;5.25;;;0.50;99.90;;;;;;20907528;28;20040;-62
2023/02/07 09:17:15;;;;;;;11.15;6.25;;;1.00;99.90;;;;;;20904332;28;20548;-59
2023/02/07 09:27:16;;;;;;;11.43;6.63;;;1.30;99.90;;;;;;20903777;28;20029;-58
2023/02/07 09:37:18;;;;;;;9.25;5.53;;;1.60;99.90;;;;;;20906202;28;20028;-58
2023/02/07 09:47:25;;;;;;;10.50;5.78;;;2.10;99.90;;;;;;20899110;28;20029;-58
2023/02/07 09:57:44;;;;;;;10.57;6.10;;;2.40;99.90;;;;;;20905015;28;20051;-59
2023/02/07 10:07:47;;;;;;;9.55;5.63;;;2.60;99.90;;;;;;20900001;28;20044;-59
2023/02/07 10:18:22;;;;;;;11.15;6.10;;;2.90;99.90;;;;;;20912433;28;20021;-59
2023/02/07 10:28:57;;;;;;;9.05;6.07;;;3.30;99.90;;;;;;20917202;28;20033;-61
2023/02/07 10:39:18;;;;;;;9.07;6.05;;;3.80;99.90;;;;;;20915589;28;20060;-61
2023/02/07 10:49:25;;;;;;;13.13;7.18;;;3.40;99.90;;;;;;20916044;28;20029;-58
2023/02/07 10:59:32;;;;;;;14.02;8.07;;;3.90;99.90;;;;;;20913064;28;20486;-57
2023/02/07 11:09:36;;;;;;;16.30;9.30;;;4.20;99.90;;;;;;20914257;28;20106;-60
2023/02/07 11:19:38;;;;;;;15.20;9.35;;;4.80;99.90;;;;;;20913586;28;20020;-60
2023/02/07 11:30:05;;;;;;;14.75;9.07;;;5.00;99.90;;;;;;20912538;28;20036;-59
2023/02/07 11:40:43;;;;;;;15.30;8.98;;;4.90;99.60;;;;;;20910412;28;20059;-60
2023/02/07 11:50:50;;;;;;;13.77;8.55;;;3.90;99.90;;;;;;20910866;28;20037;-60
2023/02/07 12:00:54;;;;;;;15.10;8.95;;;3.70;99.90;;;;;;20910374;28;20041;-60
2023/02/07 12:11:11;;;;;;;16.98;8.55;;;4.50;98.50;;;;;;20909607;28;20025;-59
2023/02/07 12:21:17;;;;;;;14.00;7.82;;;4.30;99.30;;;;;;20905893;28;20037;-60
2023/02/07 12:31:30;;;;;;;14.95;8.52;;;3.90;98.50;;;;;;20909510;28;20029;-59
2023/02/07 12:41:57;;;;;;;14.43;8.90;;;3.70;97.80;;;;;;20903712;28;20339;-60
2023/02/07 12:52:21;;;;;;;17.08;8.60;;;3.80;98.70;;;;;;20903423;28;20033;-59
2023/02/07 13:02:39;;;;;;;12.85;8.50;;;3.50;98.80;;;;;;20905109;28;20040;-60
2023/02/07 13:13:10;;;;;;;14.63;8.43;;;3.40;98.50;;;;;;20973914;28;20401;-59
2023/02/07 13:23:18;;;;;;;15.00;9.30;;;3.50;99.60;;;;;;20972285;28;20059;-59
2023/02/07 13:33:31;;;;;;;17.15;9.10;;;3.00;99.60;;;;;;20968792;28;20039;-59
2023/02/07 13:44:03;;;;;;;20.17;8.88;;;2.60;99.50;;;;;;20968570;28;20373;-59
2023/02/07 13:54:08;;;;;;;16.63;9.07;;;2.30;99.90;;;;;;20969527;28;20021;-59
2023/02/07 14:04:11;;;;;;;16.60;8.88;;;1.80;99.90;;;;;;20969821;28;20489;-58
2023/02/07 14:14:26;;;;;;;18.88;8.55;;;1.30;99.90;;;;;;20970057;28;20028;-60
2023/02/07 14:24:31;;;;;;;14.60;8.52;;;0.80;99.90;;;;;;20912999;28;20055;-60
2023/02/07 14:35:03;;;;;;;15.75;8.60;;;0.60;99.90;;;;;;20913043;28;20123;-59
2023/02/07 14:45:05;;;;;;;19.48;9.20;;;0.10;99.90;;;;;;20910353;28;20052;-60
2023/02/07 14:55:28;;;;;;;15.85;9.00;;;-0.20;99.90;;;;;;20910910;28;20033;-59
2023/02/07 15:05:35;;;;;;;21.45;9.73;;;-0.60;99.90;;;;;;20909871;28;20041;-59
2023/02/07 15:16:05;;;;;;;15.98;9.68;;;-1.00;99.90;;;;;;20910064;28;20037;-63
2023/02/07 15:26:07;;;;;;;18.87;10.13;;;-1.30;99.90;;;;;;20907727;28;20098;-62
2023/02/07 15:36:35;;;;;;;19.23;9.65;;;-1.60;99.90;;;;;;20907603;28;20021;-59
2023/02/07 15:47:04;;;;;;;20.25;10.88;;;-2.00;99.90;;;;;;20905588;28;20025;-62
2023/02/07 15:57:21;;;;;;;23.73;10.75;;;-2.70;99.90;;;;;;20904357;28;20041;-63
2023/02/07 16:07:23;;;;;;;23.48;10.60;;;-3.30;99.90;;;;;;20902820;28;20037;-63
2023/02/07 16:17:41;;;;;;;20.80;10.25;;;-3.70;99.90;;;;;;20905018;28;20025;-59
2023/02/07 16:27:45;;;;;;;22.75;10.50;;;-4.10;99.90;;;;;;20902674;28;20040;-60
2023/02/07 16:37:46;;;;;;;19.63;8.82;;;-4.40;99.90;;;;;;20902523;28;20356;-61
2023/02/07 16:47:49;;;;;;;19.02;8.88;;;-4.60;99.90;;;;;;20901543;28;20029;-59
2023/02/07 16:57:52;;;;;;;13.95;6.28;;;-4.80;99.90;;;;;;20902240;28;20029;-60
2023/02/07 17:07:53;;;;;;;21.63;8.88;;;-5.00;99.90;;;;;;20898404;28;20119;-62
2023/02/07 17:17:57;;;;;;;13.63;6.15;;;-5.20;99.90;;;;;;20901720;28;20091;-61
2023/02/07 17:27:59;;;;;;;11.55;5.40;;;-5.30;99.90;;;;;;20903451;28;20025;-63
2023/02/07 17:38:01;;;;;;;14.10;6.28;;;-5.30;99.90;;;;;;20903686;28;20025;-60
2023/02/07 17:48:03;;;;;;;12.75;6.90;;;-5.40;99.90;;;;;;20900226;28;20071;-61
2023/02/07 17:58:06;;;;;;;20.13;9.25;;;-5.50;99.90;;;;;;20913121;28;20044;-61
2023/02/07 18:08:11;;;;;;;18.60;8.23;;;-5.70;99.90;;;;;;20914725;28;20102;-60
2023/02/07 18:18:14;;;;;;;22.50;10.90;;;-6.00;99.90;;;;;;20913253;28;20025;-60
2023/02/07 18:28:16;;;;;;;20.77;10.07;;;-6.20;99.90;;;;;;20913320;28;20037;-59
2023/02/07 18:38:18;;;;;;;19.90;9.02;;;-6.30;99.90;;;;;;20912286;28;20437;-59
2023/02/07 18:48:20;;;;;;;24.20;11.82;;;-6.40;99.90;;;;;;20911959;28;20033;-60
2023/02/07 18:58:22;;;;;;;13.60;6.03;;;-6.30;99.90;;;;;;20911028;28;20025;-60
2023/02/07 19:08:24;;;;;;;8.35;3.28;;;-6.20;99.90;;;;;;20910012;28;20037;-61
2023/02/07 19:18:25;;;;;;;5.18;2.38;;;-6.00;99.90;;;;;;20909675;28;20047;-61
2023/02/07 19:28:27;;;;;;;5.13;2.20;;;-5.80;99.90;;;;;;20908644;28;20083;-63
2023/02/07 19:38:29;;;;;;;6.10;2.78;;;-5.50;99.90;;;;;;20906612;28;20024;-61
2023/02/07 19:48:31;;;;;;;8.20;3.05;;;-5.30;99.90;;;;;;20907245;28;20044;-61
2023/02/07 19:58:33;;;;;;;5.63;2.67;;;-5.30;99.90;;;;;;20906389;28;20033;-59
2023/02/07 20:08:37;;;;;;;5.35;2.45;;;-5.60;99.90;;;;;;20905410;28;20045;-61
2023/02/07 20:18:41;;;;;;;16.40;7.70;;;-5.90;99.90;;;;;;20904447;28;20029;-60
2023/02/07 20:28:45;;;;;;;6.78;3.20;;;-6.10;99.90;;;;;;20905199;28;20040;-61
2023/02/07 20:38:47;;;;;;;7.47;3.67;;;-6.30;99.90;;;;;;20900439;28;20037;-63
2023/02/07 20:48:49;;;;;;;6.15;3.55;;;-6.30;99.90;;;;;;20901740;28;20488;-60
2023/02/07 20:58:53;;;;;;;6.13;2.90;;;-6.30;99.90;;;;;;20902329;28;20426;-61
2023/02/07 21:08:59;;;;;;;9.02;3.38;;;-6.40;99.90;;;;;;20900508;28;20045;-61
2023/02/07 21:19:01;;;;;;;9.10;3.88;;;-6.40;99.90;;;;;;20895600;28;20048;-62
2023/02/07 21:29:04;;;;;;;15.05;6.22;;;-6.00;99.90;;;;;;20898672;28;20091;-60
2023/02/07 21:39:10;;;;;;;13.63;6.55;;;-5.90;99.90;;;;;;20911873;28;20036;-61
2023/02/07 21:49:14;;;;;;;12.43;5.45;;;-6.10;99.90;;;;;;20914149;28;20071;-61
2023/02/07 21:59:18;;;;;;;15.43;5.60;;;-6.30;99.90;;;;;;20912963;28;20040;-61
2023/02/07 22:09:22;;;;;;;9.10;4.30;;;-6.40;99.90;;;;;;20914832;28;20063;-60
2023/02/07 22:19:24;;;;;;;9.07;3.70;;;-6.60;99.90;;;;;;20914385;28;20401;-63
2023/02/07 22:29:26;;;;;;;7.07;3.40;;;-6.80;99.90;;;;;;20913311;28;20083;-61
2023/02/07 22:39:28;;;;;;;7.07;3.20;;;-7.00;99.90;;;;;;20911792;28;20474;-60
2023/02/07 22:49:30;;;;;;;7.63;3.40;;;-7.10;99.90;;;;;;20911930;28;20025;-60
2023/02/07 22:59:32;;;;;;;5.90;2.70;;;-7.20;99.90;;;;;;20908534;28;20033;-61
2023/02/07 23:09:34;;;;;;;3.80;1.70;;;-7.30;99.90;;;;;;20911192;28;20041;-63
2023/02/07 23:19:36;;;;;;;4.90;1.60;;;-7.50;99.90;;;;;;20908519;28;20033;-63
2023/02/07 23:29:37;;;;;;;2.93;1.10;;;-7.60;99.90;;;;;;20908973;28;20346;-63
2023/02/07 23:39:39;;;;;;;5.05;1.90;;;-7.50;99.90;;;;;;20905053;28;20016;-61
2023/02/07 23:49:41;;;;;;;5.07;2.03;;;-7.20;99.90;;;;;;20905279;28;20033;-60
2023/02/07 23:59:42;;;;;;;5.47;2.63;;;-7.00;99.90;;;;;;20906650;28;20547;-61
